createdAt,value
2019-02-06T00:00:59.493Z,30.80
2019-02-06T00:01:59.521Z,28.80
2019-02-06T00:02:59.510Z,29.30
2019-02-06T00:03:59.466Z,29.00
2019-02-06T00:04:59.459Z,29.20
2019-02-06T00:05:59.466Z,30.40
2019-02-06T00:06:59.438Z,28.10
2019-02-06T00:07:59.513Z,30.30
2019-02-06T00:08:59.422Z,30.10
2019-02-06T00:09:59.410Z,30.90
2019-02-06T00:10:59.403Z,27.00
2019-02-06T00:42:53.238Z,28.00
2019-02-06T00:43:21.191Z,28.80
2019-02-06T00:44:21.228Z,29.60
2019-02-06T00:45:21.168Z,26.80
2019-02-06T00:46:21.150Z,30.60
2019-02-06T00:47:21.136Z,29.30
2019-02-06T00:48:21.124Z,28.10
2019-02-06T00:49:21.126Z,27.90
2019-02-06T00:50:21.106Z,27.80
2019-02-06T00:51:21.106Z,28.20
2019-02-06T00:52:21.089Z,25.70
2019-02-06T00:53:21.066Z,28.40
2019-02-06T00:54:21.091Z,29.60
2019-02-06T00:55:21.060Z,26.10
2019-02-06T00:56:21.046Z,28.80
2019-02-06T00:57:21.047Z,28.20
2019-02-06T00:58:21.021Z,27.60
2019-02-06T00:59:21.033Z,25.40
2019-02-06T01:00:21.000Z,31.00
2019-02-06T01:01:20.985Z,28.60
2019-02-06T01:02:20.987Z,27.50
2019-02-06T01:03:20.982Z,29.20
2019-02-06T01:04:20.965Z,29.10
2019-02-06T01:05:20.973Z,28.60
2019-02-06T01:06:20.942Z,28.70
2019-02-06T01:07:20.933Z,29.20
2019-02-06T01:08:20.925Z,28.40
2019-02-06T01:09:20.890Z,30.20
2019-02-06T01:10:20.909Z,26.90
2019-02-06T01:11:20.887Z,26.50
2019-02-06T01:12:20.894Z,26.70
2019-02-06T01:13:20.859Z,26.10
2019-02-06T01:14:20.860Z,28.10
2019-02-06T01:15:20.858Z,28.00
2019-02-06T01:16:20.842Z,26.80
2019-02-06T01:17:20.812Z,26.30
2019-02-06T01:18:20.810Z,24.80
2019-02-06T01:19:20.801Z,26.70
2019-02-06T01:20:20.806Z,28.00
2019-02-06T01:21:20.792Z,25.60
2019-02-06T01:22:20.767Z,26.80
2019-02-06T01:23:20.753Z,24.70
2019-02-06T01:24:20.759Z,28.40
2019-02-06T01:25:20.748Z,26.30
2019-02-06T01:26:20.716Z,25.20
2019-02-06T01:27:20.719Z,24.80
2019-02-06T01:28:20.697Z,23.10
2019-02-06T01:29:20.683Z,25.80
2019-02-06T01:30:20.697Z,26.60
2019-02-06T01:31:20.676Z,27.30
2019-02-06T01:32:20.657Z,25.50
2019-02-06T01:33:20.637Z,26.00
2019-02-06T01:34:20.632Z,27.30
2019-02-06T01:35:20.639Z,27.30
2019-02-06T01:36:20.614Z,23.90
2019-02-06T01:37:20.591Z,25.20
2019-02-06T01:38:20.592Z,27.20
2019-02-06T01:39:20.571Z,29.80
2019-02-06T01:40:20.579Z,25.30
2019-02-06T01:41:20.549Z,24.20
2019-02-06T01:42:20.566Z,26.30
2019-02-06T01:43:20.546Z,23.80
2019-02-06T01:44:20.532Z,25.60
2019-02-06T01:45:20.532Z,25.90
2019-02-06T01:46:20.500Z,25.80
2019-02-06T01:47:20.486Z,24.60
2019-02-06T01:48:20.486Z,24.90
2019-02-06T01:49:20.474Z,27.00
2019-02-06T01:50:20.472Z,23.00
2019-02-06T01:51:20.440Z,26.30
2019-02-06T01:52:20.422Z,24.80
2019-02-06T01:53:20.425Z,24.50
2019-02-06T01:54:20.414Z,27.20
2019-02-06T01:55:20.449Z,25.10
2019-02-06T01:56:20.396Z,23.50
2019-02-06T01:57:20.386Z,27.00
2019-02-06T01:58:20.356Z,22.50
2019-02-06T01:59:20.360Z,24.30
2019-02-06T02:00:20.435Z,25.10
2019-02-06T02:01:20.348Z,24.70
2019-02-06T02:02:20.324Z,22.60
2019-02-06T02:03:20.314Z,22.80
2019-02-06T02:04:20.296Z,26.20
2019-02-06T02:05:20.303Z,21.70
2019-02-06T02:06:20.304Z,24.40
2019-02-06T02:07:20.269Z,25.00
2019-02-06T02:08:20.263Z,23.70
2019-02-06T02:09:20.255Z,23.70
2019-02-06T02:10:20.238Z,23.40
2019-02-06T02:11:20.256Z,21.90
2019-02-06T02:12:20.211Z,24.10
2019-02-06T02:13:20.204Z,24.80
2019-02-06T02:14:20.212Z,23.50
2019-02-06T02:15:20.171Z,25.90
2019-02-06T02:16:20.181Z,24.20
2019-02-06T02:17:20.167Z,24.50
2019-02-06T02:18:20.156Z,23.60
2019-02-06T02:19:20.128Z,25.50
2019-02-06T02:20:20.123Z,24.20
2019-02-06T02:21:20.142Z,25.30
2019-02-06T02:22:20.102Z,24.30
2019-02-06T02:23:20.092Z,23.00
2019-02-06T02:24:20.098Z,24.70
2019-02-06T02:25:20.073Z,25.40
2019-02-06T02:26:20.055Z,22.10
2019-02-06T02:27:20.074Z,22.90
2019-02-06T02:28:20.045Z,24.40
2019-02-06T02:29:20.034Z,25.30
2019-02-06T02:30:20.013Z,23.20
2019-02-06T02:31:20.009Z,22.30
2019-02-06T02:32:20.029Z,23.50
2019-02-06T02:33:19.981Z,21.30
2019-02-06T02:34:19.972Z,22.90
2019-02-06T02:35:19.963Z,24.00
2019-02-06T02:36:19.950Z,23.80
2019-02-06T02:37:19.960Z,23.80
2019-02-06T02:38:19.929Z,24.20
2019-02-06T02:39:19.928Z,22.90
2019-02-06T02:40:19.900Z,22.30
2019-02-06T02:41:19.907Z,24.00
2019-02-06T02:42:19.898Z,22.60
2019-02-06T02:43:19.871Z,23.70
2019-02-06T02:44:19.859Z,24.90
2019-02-06T02:45:19.843Z,24.60
2019-02-06T02:46:19.836Z,22.90
2019-02-06T02:47:19.853Z,23.90
2019-02-06T02:48:19.827Z,23.10
2019-02-06T02:49:19.801Z,22.10
2019-02-06T02:50:19.808Z,24.40
2019-02-06T02:51:19.779Z,24.40
2019-02-06T02:52:19.789Z,21.80
2019-02-06T02:53:19.757Z,23.20
2019-02-06T02:54:19.748Z,22.30
2019-02-06T02:55:19.749Z,26.60
2019-02-06T02:56:19.760Z,23.10
2019-02-06T02:57:19.762Z,24.40
2019-02-06T02:58:19.712Z,23.10
2019-02-06T02:59:19.701Z,21.90
2019-02-06T03:00:19.695Z,22.40
2019-02-06T03:01:19.685Z,23.90
2019-02-06T03:02:19.681Z,21.10
2019-02-06T03:03:19.655Z,21.90
2019-02-06T03:04:19.639Z,20.70
2019-02-06T03:05:19.635Z,23.80
2019-02-06T03:06:27.766Z,22.80
2019-02-06T03:07:20.616Z,25.20
2019-02-06T03:08:19.649Z,23.30
2019-02-06T03:09:19.595Z,21.90
2019-02-06T03:10:19.576Z,22.20
2019-02-06T03:11:19.570Z,23.30
2019-02-06T03:12:19.600Z,24.00
2019-02-06T03:13:19.538Z,22.90
2019-02-06T03:14:19.522Z,25.90
2019-02-06T03:15:19.517Z,23.40
2019-02-06T03:16:19.501Z,23.70
2019-02-06T03:17:19.522Z,25.60
2019-02-06T03:18:19.498Z,22.30
2019-02-06T03:19:19.468Z,22.50
2019-02-06T03:20:19.467Z,23.40
2019-02-06T03:21:19.453Z,23.10
2019-02-06T03:22:19.465Z,21.10
2019-02-06T03:23:19.437Z,23.70
2019-02-06T03:24:19.416Z,23.80
2019-02-06T03:25:19.410Z,21.20
2019-02-06T03:26:19.408Z,23.20
2019-02-06T03:27:19.404Z,22.60
2019-02-06T03:28:19.393Z,23.00
2019-02-06T03:29:19.357Z,23.60
2019-02-06T03:30:19.730Z,25.80
2019-02-06T03:35:10.515Z,25.50
2019-02-06T03:35:49.486Z,24.70
2019-02-06T03:36:49.480Z,26.40
2019-02-06T03:37:49.475Z,25.80
2019-02-06T03:38:49.475Z,26.20
2019-02-06T03:39:49.450Z,26.10
2019-02-06T03:40:49.434Z,25.90
2019-02-06T03:41:49.416Z,26.40
2019-02-06T03:42:49.401Z,26.50
2019-02-06T03:43:49.416Z,25.80
2019-02-06T03:44:49.390Z,26.00
2019-02-06T03:45:49.377Z,27.10
2019-02-06T03:46:49.359Z,27.60
2019-02-06T03:47:49.361Z,27.20
2019-02-06T03:48:49.359Z,27.20
2019-02-06T03:49:49.338Z,27.50
2019-02-06T03:50:49.351Z,26.40
2019-02-06T03:51:49.333Z,26.90
2019-02-06T03:52:49.308Z,25.70
2019-02-06T03:53:49.298Z,29.50
2019-02-06T03:54:49.279Z,25.90
2019-02-06T03:55:49.270Z,27.80
2019-02-06T03:56:49.254Z,23.90
2019-02-06T03:57:49.236Z,25.50
2019-02-06T03:58:49.253Z,27.00
2019-02-06T03:59:49.221Z,25.00
2019-02-06T04:00:49.207Z,24.90
2019-02-06T04:01:49.206Z,26.50
2019-02-06T04:02:49.198Z,26.20
2019-02-06T04:03:49.191Z,27.10
2019-02-06T04:04:49.165Z,28.80
2019-02-06T04:05:49.159Z,26.00
2019-02-06T04:06:54.996Z,22.90
2019-02-06T04:07:50.140Z,24.90
2019-02-06T04:08:49.135Z,25.80
2019-02-06T04:09:49.113Z,28.60
2019-02-06T04:10:49.235Z,27.10
2019-02-06T04:11:49.216Z,28.00
2019-02-06T04:12:49.077Z,26.10
2019-02-06T04:13:49.094Z,26.80
2019-02-06T04:14:49.059Z,25.90
2019-02-06T04:15:49.041Z,28.00
2019-02-06T04:16:49.120Z,26.80
2019-02-06T04:17:49.026Z,24.80
2019-02-06T04:18:49.029Z,26.30
2019-02-06T04:19:49.033Z,28.60
2019-02-06T04:20:48.994Z,27.20
2019-02-06T04:21:48.988Z,26.60
2019-02-06T04:22:49.024Z,27.90
2019-02-06T04:23:48.961Z,26.30
2019-02-06T04:24:51.528Z,26.10
2019-02-06T04:25:48.930Z,26.80
2019-02-06T04:26:48.932Z,29.30
2019-02-06T04:27:48.905Z,26.80
2019-02-06T04:28:48.904Z,27.60
2019-02-06T04:29:48.910Z,26.40
2019-02-06T04:30:48.895Z,27.50
2019-02-06T04:31:48.867Z,27.90
2019-02-06T04:32:48.866Z,27.70
2019-02-06T04:33:48.881Z,25.90
2019-02-06T04:34:48.833Z,28.40
2019-02-06T04:35:48.849Z,27.40
2019-02-06T04:36:48.818Z,29.20
2019-02-06T04:37:48.810Z,24.40
2019-02-06T04:38:48.800Z,31.40
2019-02-06T04:39:48.788Z,32.80
2019-02-06T04:40:48.776Z,31.80
2019-02-06T04:41:48.759Z,32.80
2019-02-06T04:42:48.751Z,35.00
2019-02-06T04:43:48.743Z,29.80
2019-02-06T04:44:48.734Z,29.40
2019-02-06T04:45:48.738Z,28.70
2019-02-06T04:46:48.742Z,27.50
2019-02-06T04:47:48.692Z,29.30
2019-02-06T04:48:48.676Z,31.00
2019-02-06T04:49:48.674Z,31.40
2019-02-06T04:50:48.682Z,29.30
2019-02-06T04:51:48.650Z,28.60
2019-02-06T04:52:48.650Z,29.10
2019-02-06T04:53:48.624Z,31.10
2019-02-06T04:54:48.623Z,28.70
2019-02-06T04:55:48.603Z,32.80
2019-02-06T04:56:48.612Z,30.80
2019-02-06T04:57:48.586Z,30.60
2019-02-06T04:58:48.584Z,31.10
2019-02-06T04:59:48.583Z,30.60
2019-02-06T05:00:48.569Z,30.20
2019-02-06T05:01:48.550Z,31.70
2019-02-06T05:02:48.516Z,32.70
2019-02-06T05:03:48.516Z,32.70
2019-02-06T05:04:48.508Z,33.90
2019-02-06T05:05:48.488Z,33.90
2019-02-06T05:06:48.504Z,33.20
2019-02-06T05:07:48.485Z,35.10
2019-02-06T05:08:48.449Z,35.30
2019-02-06T05:09:48.456Z,36.50
2019-02-06T05:10:48.433Z,38.20
2019-02-06T05:11:48.432Z,36.90
2019-02-06T05:12:48.441Z,36.40
2019-02-06T05:13:48.454Z,41.10
2019-02-06T05:14:48.401Z,40.20
2019-02-06T05:15:48.389Z,38.10
2019-02-06T05:16:48.371Z,37.30
2019-02-06T05:17:48.377Z,40.90
2019-02-06T05:18:48.347Z,42.20
2019-02-06T05:19:48.335Z,42.90
2019-02-06T05:20:48.333Z,40.30
2019-02-06T05:21:48.325Z,38.60
2019-02-06T05:22:48.325Z,43.00
2019-02-06T05:23:48.291Z,43.40
2019-02-06T05:24:48.297Z,44.80
2019-02-06T05:25:48.280Z,40.80
2019-02-06T05:26:48.273Z,44.80
2019-02-06T05:27:48.281Z,42.40
2019-02-06T05:28:48.238Z,41.90
2019-02-06T05:29:48.224Z,42.70
2019-02-06T05:30:48.224Z,47.00
2019-02-06T05:31:48.207Z,43.30
2019-02-06T05:32:48.205Z,46.40
2019-02-06T05:33:48.204Z,46.70
2019-02-06T05:34:48.191Z,46.00
2019-02-06T05:35:48.169Z,46.90
2019-02-06T05:36:50.782Z,46.20
2019-02-06T05:37:48.153Z,44.70
2019-02-06T05:38:48.168Z,44.70
2019-02-06T05:39:48.129Z,48.60
2019-02-06T05:40:48.114Z,44.20
2019-02-06T05:41:48.101Z,47.30
2019-02-06T05:42:48.093Z,45.10
2019-02-06T05:43:48.101Z,46.80
2019-02-06T05:44:48.071Z,46.10
2019-02-06T05:45:48.059Z,49.60
2019-02-06T05:46:48.057Z,45.10
2019-02-06T05:47:48.062Z,47.20
2019-02-06T05:48:49.389Z,49.70
2019-02-06T05:49:48.016Z,50.70
2019-02-06T05:50:48.001Z,50.40
2019-02-06T05:51:48.007Z,48.50
2019-02-06T05:52:47.984Z,48.60
2019-02-06T05:53:47.967Z,49.10
2019-02-06T05:54:47.971Z,48.20
2019-02-06T05:55:47.947Z,47.40
2019-02-06T05:56:47.935Z,48.20
2019-02-06T05:57:47.938Z,47.30
2019-02-06T05:58:47.920Z,45.30
2019-02-06T05:59:47.944Z,48.00
2019-02-06T06:00:47.890Z,44.40
2019-02-06T06:01:47.888Z,53.00
2019-02-06T06:02:47.871Z,49.50
2019-02-06T06:03:47.864Z,47.30
2019-02-06T06:04:47.871Z,51.70
2019-02-06T06:05:47.842Z,50.80
2019-02-06T06:06:47.844Z,48.70
2019-02-06T06:07:47.820Z,51.20
2019-02-06T06:08:47.818Z,47.20
2019-02-06T06:09:47.837Z,51.60
2019-02-06T06:10:47.785Z,50.50
2019-02-06T06:11:47.786Z,46.80
2019-02-06T06:12:47.767Z,49.80
2019-02-06T06:13:47.767Z,47.10
2019-02-06T06:14:47.746Z,48.90
2019-02-06T06:15:47.742Z,48.90
2019-02-06T06:16:47.726Z,50.20
2019-02-06T06:17:47.707Z,49.50
2019-02-06T06:18:47.692Z,49.10
2019-02-06T06:19:47.681Z,48.40
2019-02-06T06:20:47.687Z,48.70
2019-02-06T06:21:47.668Z,51.30
2019-02-06T06:22:47.658Z,49.50
2019-02-06T06:23:47.659Z,50.90
2019-02-06T06:24:47.631Z,49.50
2019-02-06T06:25:47.637Z,54.50
2019-02-06T06:26:47.622Z,52.80
2019-02-06T06:27:47.609Z,52.30
2019-02-06T06:28:47.583Z,50.30
2019-02-06T06:29:47.584Z,55.30
2019-02-06T06:30:47.639Z,53.10
2019-02-06T06:31:47.557Z,50.30
2019-02-06T06:32:47.548Z,51.70
2019-02-06T06:33:47.537Z,51.80
2019-02-06T06:34:47.519Z,50.50
2019-02-06T06:35:47.529Z,52.00
2019-02-06T06:36:47.512Z,53.60
2019-02-06T06:37:57.790Z,55.90
2019-02-06T06:38:48.485Z,54.00
2019-02-06T06:39:47.483Z,53.20
2019-02-06T06:40:47.465Z,51.90
2019-02-06T06:41:47.472Z,58.00
2019-02-06T06:42:47.448Z,55.60
2019-02-06T06:43:47.429Z,56.40
2019-02-06T06:44:47.423Z,58.30
2019-02-06T06:45:47.414Z,52.60
2019-02-06T06:46:47.421Z,61.80
2019-02-06T06:47:47.393Z,58.30
2019-02-06T06:48:47.391Z,55.30
2019-02-06T06:49:47.369Z,57.20
2019-02-06T06:50:47.356Z,62.30
2019-02-06T06:51:47.359Z,60.30
2019-02-06T06:52:47.343Z,60.00
2019-02-06T06:53:47.317Z,58.70
2019-02-06T06:54:47.313Z,60.70
2019-02-06T06:55:47.305Z,60.70
2019-02-06T06:56:47.315Z,59.40
2019-02-06T06:57:47.339Z,60.20
2019-02-06T06:58:47.266Z,55.50
2019-02-06T06:59:47.266Z,57.70
2019-02-06T07:00:47.259Z,54.20
2019-02-06T07:01:47.275Z,55.80
2019-02-06T07:02:47.241Z,58.20
2019-02-06T07:03:47.234Z,56.90
2019-02-06T07:04:47.240Z,56.60
2019-02-06T07:05:47.194Z,56.60
2019-02-06T07:06:47.180Z,56.00
2019-02-06T07:07:47.268Z,57.80
2019-02-06T07:08:47.152Z,59.10
2019-02-06T07:09:47.150Z,62.30
2019-02-06T07:10:47.132Z,56.50
2019-02-06T07:11:47.123Z,60.60
2019-02-06T07:12:47.154Z,56.50
2019-02-06T07:13:47.108Z,59.30
2019-02-06T07:14:47.080Z,57.80
2019-02-06T07:15:47.084Z,55.30
2019-02-06T07:16:47.095Z,55.10
2019-02-06T07:17:47.099Z,61.10
2019-02-06T07:18:47.055Z,57.00
2019-02-06T07:19:47.048Z,53.40
2019-02-06T07:20:47.028Z,57.40
2019-02-06T07:21:47.032Z,56.20
2019-02-06T07:22:47.046Z,54.80
2019-02-06T07:23:47.036Z,57.10
2019-02-06T07:24:46.983Z,56.00
2019-02-06T07:25:47.020Z,53.10
2019-02-06T07:26:46.954Z,54.90
2019-02-06T07:27:46.964Z,53.60
2019-02-06T07:28:46.961Z,59.00
2019-02-06T07:29:46.960Z,55.60
2019-02-06T07:30:46.920Z,55.70
2019-02-06T07:31:46.942Z,56.30
2019-02-06T07:32:46.923Z,58.40
2019-02-06T07:33:46.927Z,59.90
2019-02-06T07:34:46.881Z,58.90
2019-02-06T07:35:46.889Z,59.50
2019-02-06T07:36:46.850Z,57.10
2019-02-06T07:37:46.849Z,60.00
2019-02-06T07:38:46.845Z,58.90
2019-02-06T07:39:46.850Z,59.60
2019-02-06T07:40:46.816Z,62.40
2019-02-06T07:41:46.804Z,61.70
2019-02-06T07:42:46.779Z,60.40
2019-02-06T07:43:46.791Z,57.90
2019-02-06T07:44:46.775Z,58.50
2019-02-06T07:45:46.757Z,59.10
2019-02-06T07:46:46.745Z,62.90
2019-02-06T07:47:46.737Z,63.00
2019-02-06T07:48:46.745Z,59.60
2019-02-06T07:49:46.725Z,64.40
2019-02-06T07:50:46.716Z,62.30
2019-02-06T07:51:46.679Z,63.00
2019-02-06T07:52:46.692Z,64.20
2019-02-06T07:53:46.708Z,63.90
2019-02-06T07:54:46.661Z,63.30
2019-02-06T07:55:46.651Z,63.40
2019-02-06T07:56:46.635Z,67.70
2019-02-06T07:57:46.641Z,64.20
2019-02-06T07:58:46.612Z,63.10
2019-02-06T07:59:46.626Z,64.60
2019-02-06T08:00:46.593Z,63.40
2019-02-06T08:01:46.575Z,59.90
2019-02-06T08:02:46.570Z,66.40
2019-02-06T08:03:46.561Z,58.80
2019-02-06T08:04:46.561Z,65.40
2019-02-06T08:05:46.540Z,58.20
2019-02-06T08:06:46.536Z,56.90
2019-02-06T08:07:46.514Z,60.50
2019-02-06T08:08:46.494Z,58.50
2019-02-06T08:09:46.508Z,59.30
2019-02-06T08:10:46.485Z,60.60
2019-02-06T08:11:46.481Z,55.60
2019-02-06T08:12:46.464Z,58.20
2019-02-06T08:13:46.472Z,59.00
2019-02-06T08:14:46.457Z,57.70
2019-02-06T08:15:46.426Z,59.60
2019-02-06T08:16:46.436Z,60.20
2019-02-06T08:17:46.409Z,55.80
2019-02-06T08:18:46.407Z,65.30
2019-02-06T08:19:46.404Z,57.10
2019-02-06T08:20:46.375Z,57.10
2019-02-06T08:21:46.368Z,60.00
2019-02-06T08:22:46.363Z,54.10
2019-02-06T08:23:46.351Z,55.40
2019-02-06T08:24:46.349Z,54.30
2019-02-06T08:25:46.314Z,56.80
2019-02-06T08:26:46.316Z,55.00
2019-02-06T08:27:46.307Z,55.60
2019-02-06T08:28:46.297Z,54.30
2019-02-06T08:29:46.291Z,54.90
2019-02-06T08:30:46.314Z,56.10
2019-02-06T08:31:46.261Z,56.50
2019-02-06T08:32:46.250Z,62.90
2019-02-06T08:33:46.247Z,58.60
2019-02-06T08:34:46.258Z,61.20
2019-02-06T08:35:46.213Z,61.50
2019-02-06T08:36:46.210Z,59.20
2019-02-06T08:37:46.200Z,57.90
2019-02-06T08:38:47.898Z,58.60
2019-02-06T08:39:46.207Z,60.80
2019-02-06T08:40:46.156Z,56.70
2019-02-06T08:41:46.147Z,59.50
2019-02-06T08:42:46.144Z,59.30
2019-02-06T08:43:46.131Z,59.10
2019-02-06T08:44:46.114Z,56.80
2019-02-06T08:45:46.125Z,52.60
2019-02-06T08:46:46.090Z,54.60
2019-02-06T08:47:46.079Z,57.40
2019-02-06T08:48:46.076Z,54.90
2019-02-06T08:49:46.052Z,55.30
2019-02-06T08:50:46.077Z,54.50
2019-02-06T08:51:46.040Z,54.40
2019-02-06T08:52:46.026Z,55.80
2019-02-06T08:53:46.010Z,52.80
2019-02-06T08:54:46.033Z,53.70
2019-02-06T08:55:46.017Z,52.10
2019-02-06T08:56:46.031Z,55.80
2019-02-06T08:57:45.983Z,55.00
2019-02-06T08:58:45.969Z,49.90
2019-02-06T08:59:45.946Z,54.70
2019-02-06T09:00:45.952Z,51.50
2019-02-06T09:01:45.931Z,50.30
2019-02-06T09:02:45.929Z,54.10
2019-02-06T09:03:45.919Z,54.60
2019-02-06T09:04:55.465Z,54.00
2019-02-06T09:05:46.913Z,52.10
2019-02-06T09:06:45.872Z,51.10
2019-02-06T09:07:45.854Z,51.80
2019-02-06T09:08:45.851Z,53.10
2019-02-06T09:09:45.841Z,52.20
2019-02-06T09:10:45.864Z,53.90
2019-02-06T09:11:45.826Z,54.40
2019-02-06T09:12:45.804Z,52.40
2019-02-06T09:13:45.790Z,50.10
2019-02-06T09:14:45.805Z,50.80
2019-02-06T09:15:45.794Z,50.60
2019-02-06T09:16:45.789Z,48.40
2019-02-06T09:17:45.747Z,50.00
2019-02-06T09:18:45.745Z,49.50
2019-02-06T09:19:45.727Z,50.70
2019-02-06T09:20:46.171Z,48.60
2019-02-06T09:21:45.705Z,48.90
2019-02-06T09:22:45.695Z,48.70
2019-02-06T09:23:45.693Z,47.40
2019-02-06T09:24:45.681Z,46.40
2019-02-06T09:25:45.659Z,47.40
2019-02-06T09:26:45.673Z,48.40
2019-02-06T09:27:45.642Z,47.30
2019-02-06T09:28:45.638Z,48.40
2019-02-06T09:29:45.632Z,49.40
2019-02-06T09:30:45.633Z,49.70
2019-02-06T09:31:45.634Z,49.20
2019-02-06T09:32:45.600Z,47.50
2019-02-06T09:33:45.575Z,47.10
2019-02-06T09:34:45.567Z,44.40
2019-02-06T09:35:45.574Z,45.40
2019-02-06T09:36:45.567Z,47.30
2019-02-06T09:37:45.539Z,45.50
2019-02-06T09:38:45.521Z,43.30
2019-02-06T09:39:45.511Z,49.00
2019-02-06T09:40:45.498Z,46.30
2019-02-06T09:41:45.574Z,44.00
2019-02-06T09:42:45.497Z,42.70
2019-02-06T09:43:45.471Z,45.10
2019-02-06T09:44:45.465Z,41.70
2019-02-06T09:45:45.449Z,47.90
2019-02-06T09:46:45.455Z,45.60
2019-02-06T09:47:45.436Z,42.30
2019-02-06T09:48:45.427Z,43.90
2019-02-06T09:49:45.407Z,42.00
2019-02-06T09:50:45.413Z,46.00
2019-02-06T09:51:45.396Z,46.20
2019-02-06T09:52:45.458Z,44.40
2019-02-06T09:53:45.363Z,42.10
2019-02-06T09:54:45.337Z,40.10
2019-02-06T09:55:45.345Z,45.60
2019-02-06T09:56:45.346Z,43.80
2019-02-06T09:57:45.324Z,38.60
2019-02-06T09:58:45.304Z,39.50
2019-02-06T09:59:45.311Z,44.60
2019-02-06T10:00:45.276Z,42.50
2019-02-06T10:01:45.288Z,40.80
2019-02-06T10:02:45.266Z,40.60
2019-02-06T10:03:46.968Z,40.00
2019-02-06T10:04:45.234Z,39.40
2019-02-06T10:05:45.222Z,43.60
2019-02-06T10:06:45.237Z,39.40
2019-02-06T10:07:46.266Z,41.70
2019-02-06T10:08:45.265Z,38.90
2019-02-06T10:09:45.189Z,41.50
2019-02-06T10:10:45.167Z,40.40
2019-02-06T10:11:45.180Z,41.80
2019-02-06T10:12:45.163Z,40.60
2019-02-06T10:13:45.217Z,42.30
2019-02-06T10:14:45.128Z,40.60
2019-02-06T10:15:45.116Z,37.70
2019-02-06T10:16:45.134Z,40.60
2019-02-06T10:17:45.095Z,39.80
2019-02-06T10:18:45.082Z,41.80
2019-02-06T10:19:45.066Z,39.40
2019-02-06T10:20:45.063Z,36.70
2019-02-06T10:21:45.073Z,40.50
2019-02-06T10:22:45.042Z,39.60
2019-02-06T10:23:45.033Z,39.70
2019-02-06T10:24:45.018Z,43.20
2019-02-06T10:25:45.002Z,41.90
2019-02-06T10:26:45.002Z,47.00
2019-02-06T10:27:44.982Z,41.10
2019-02-06T10:28:44.988Z,43.10
2019-02-06T10:29:44.967Z,39.50
2019-02-06T10:30:44.950Z,39.10
2019-02-06T10:31:44.967Z,40.40
2019-02-06T10:32:44.929Z,38.40
2019-02-06T10:33:44.910Z,38.40
2019-02-06T10:34:44.926Z,36.10
2019-02-06T10:35:44.895Z,37.90
2019-02-06T10:36:44.894Z,35.80
2019-02-06T10:37:44.916Z,37.30
2019-02-06T10:38:44.851Z,35.80
2019-02-06T10:39:44.861Z,37.90
2019-02-06T10:40:44.843Z,38.80
2019-02-06T10:41:44.862Z,36.50
2019-02-06T10:42:44.823Z,36.50
2019-02-06T10:43:44.799Z,35.70
2019-02-06T10:44:44.795Z,33.80
2019-02-06T10:45:44.788Z,32.90
2019-02-06T10:46:44.775Z,33.00
2019-02-06T10:47:44.786Z,35.50
2019-02-06T10:48:44.760Z,34.40
2019-02-06T10:49:44.736Z,35.00
2019-02-06T10:50:44.724Z,36.90
2019-02-06T10:51:44.721Z,32.30
2019-02-06T10:52:44.740Z,35.30
2019-02-06T10:53:44.727Z,33.30
2019-02-06T10:54:44.711Z,33.90
2019-02-06T10:55:44.693Z,32.50
2019-02-06T10:56:44.669Z,32.30
2019-02-06T10:57:44.657Z,34.80
2019-02-06T10:58:44.651Z,33.70
2019-02-06T10:59:44.617Z,32.00
2019-02-06T11:00:44.626Z,34.90
2019-02-06T11:01:44.648Z,34.70
2019-02-06T11:02:44.607Z,33.60
2019-02-06T11:03:44.595Z,34.30
2019-02-06T11:04:44.579Z,37.30
2019-02-06T11:05:44.555Z,32.30
2019-02-06T11:06:44.539Z,36.50
2019-02-06T11:07:46.213Z,33.00
2019-02-06T11:08:44.538Z,36.20
2019-02-06T11:09:46.462Z,30.80
2019-02-06T11:10:44.511Z,38.30
2019-02-06T11:11:44.515Z,33.80
2019-02-06T11:12:44.495Z,29.90
2019-02-06T11:13:44.523Z,31.60
2019-02-06T11:14:44.463Z,33.70
2019-02-06T11:15:44.457Z,29.60
2019-02-06T11:16:44.436Z,32.40
2019-02-06T11:17:44.449Z,29.70
2019-02-06T11:18:44.695Z,26.80
2019-02-06T11:19:44.420Z,26.90
2019-02-06T11:20:44.391Z,29.70
2019-02-06T11:21:44.421Z,28.20
2019-02-06T11:22:44.387Z,30.60
2019-02-06T11:23:44.359Z,28.20
2019-02-06T11:24:44.344Z,29.20
2019-02-06T11:25:44.339Z,27.50
2019-02-06T11:26:44.343Z,28.50
2019-02-06T11:27:44.328Z,28.20
2019-02-06T11:28:44.325Z,28.00
2019-02-06T11:29:44.302Z,26.70
2019-02-06T11:30:44.304Z,28.70
2019-02-06T11:31:44.280Z,26.90
2019-02-06T11:32:44.292Z,24.90
2019-02-06T11:33:44.255Z,23.50
2019-02-06T11:34:44.232Z,29.30
2019-02-06T11:35:44.225Z,26.80
2019-02-06T11:36:44.216Z,28.50
2019-02-06T11:37:44.259Z,25.30
2019-02-06T11:38:44.200Z,24.50
2019-02-06T11:39:44.204Z,26.60
2019-02-06T11:40:44.258Z,25.50
2019-02-06T11:41:44.205Z,25.30
2019-02-06T11:42:44.166Z,32.00
2019-02-06T11:43:44.174Z,28.30
2019-02-06T11:44:44.134Z,26.80
2019-02-06T11:45:44.112Z,25.50
2019-02-06T11:46:44.116Z,23.90
2019-02-06T11:47:44.084Z,21.40
2019-02-06T11:48:44.092Z,24.50
2019-02-06T11:49:44.071Z,23.40
2019-02-06T11:50:44.141Z,24.00
2019-02-06T11:51:44.053Z,24.80
2019-02-06T11:52:44.045Z,25.10
2019-02-06T11:53:44.040Z,25.40
2019-02-06T11:54:44.009Z,23.20
2019-02-06T11:55:44.012Z,22.40
2019-02-06T11:56:43.992Z,25.80
2019-02-06T11:57:43.991Z,22.80
2019-02-06T11:58:43.991Z,22.00
2019-02-06T11:59:43.982Z,23.70
2019-02-06T12:00:43.949Z,22.20
2019-02-06T12:01:43.958Z,21.90
2019-02-06T12:02:43.932Z,21.90
2019-02-06T12:03:43.936Z,22.50
2019-02-06T12:04:43.912Z,21.90
2019-02-06T12:05:43.887Z,20.30
2019-02-06T12:06:43.886Z,19.60
2019-02-06T12:07:43.881Z,21.60
2019-02-06T12:08:43.903Z,21.60
2019-02-06T12:09:43.850Z,20.00
2019-02-06T12:10:43.846Z,19.70
2019-02-06T12:11:43.841Z,21.50
2019-02-06T12:12:43.829Z,18.90
2019-02-06T12:13:43.927Z,23.10
2019-02-06T12:14:43.802Z,24.50
2019-02-06T12:15:43.790Z,21.10
2019-02-06T12:16:43.789Z,19.30
2019-02-06T12:17:43.790Z,22.40
2019-02-06T12:18:43.799Z,18.50
2019-02-06T12:19:43.747Z,20.80
2019-02-06T12:20:43.802Z,22.30
2019-02-06T12:21:43.741Z,18.90
2019-02-06T12:22:43.763Z,18.90
2019-02-06T12:23:43.787Z,18.00
2019-02-06T12:24:43.788Z,18.40
2019-02-06T12:25:43.682Z,19.00
2019-02-06T12:26:43.673Z,19.30
2019-02-06T12:27:43.671Z,19.50
2019-02-06T12:28:43.666Z,21.50
2019-02-06T12:29:43.627Z,20.40
2019-02-06T12:30:43.615Z,18.40
2019-02-06T12:31:43.609Z,19.50
2019-02-06T12:32:51.903Z,19.20
2019-02-06T12:33:44.634Z,19.90
2019-02-06T12:34:43.582Z,19.00
2019-02-06T12:35:43.566Z,18.20
2019-02-06T12:36:43.583Z,18.40
2019-02-06T12:37:43.551Z,21.40
2019-02-06T12:38:53.218Z,17.50
2019-02-06T12:39:44.548Z,21.50
2019-02-06T12:40:43.509Z,19.10
2019-02-06T12:41:43.489Z,19.90
2019-02-06T12:42:43.496Z,18.70
2019-02-06T12:43:43.470Z,20.70
2019-02-06T12:44:43.481Z,19.00
2019-02-06T12:45:43.451Z,20.90
2019-02-06T12:46:43.466Z,27.80
2019-02-06T12:47:43.423Z,18.80
2019-02-06T12:48:43.424Z,20.20
2019-02-06T12:49:43.414Z,20.00
2019-02-06T12:50:43.410Z,17.80
2019-02-06T12:51:43.389Z,18.70
2019-02-06T12:52:43.383Z,19.80
2019-02-06T12:53:43.366Z,17.80
2019-02-06T12:54:43.366Z,19.20
2019-02-06T12:55:43.352Z,19.10
2019-02-06T12:56:43.334Z,18.70
2019-02-06T12:57:43.333Z,18.60
2019-02-06T12:58:43.300Z,20.70
2019-02-06T12:59:43.334Z,19.40
2019-02-06T13:00:43.289Z,17.30
2019-02-06T13:01:43.290Z,17.90
2019-02-06T13:02:43.272Z,17.60
2019-02-06T13:03:43.266Z,18.40
2019-02-06T13:04:43.270Z,19.60
2019-02-06T13:05:43.240Z,17.90
2019-02-06T13:06:43.222Z,19.20
2019-02-06T13:07:44.182Z,19.10
2019-02-06T13:08:43.200Z,20.90
2019-02-06T13:09:43.205Z,20.40
2019-02-06T13:10:43.178Z,17.20
2019-02-06T13:11:43.174Z,17.00
2019-02-06T13:12:43.264Z,17.20
2019-02-06T13:13:45.203Z,19.50
2019-02-06T13:14:43.156Z,17.60
2019-02-06T13:15:43.114Z,19.40
2019-02-06T13:16:43.106Z,19.60
2019-02-06T13:17:43.110Z,17.70
2019-02-06T13:18:43.091Z,18.40
2019-02-06T13:19:43.175Z,16.50
2019-02-06T13:20:43.073Z,22.70
2019-02-06T13:21:43.080Z,18.60
2019-02-06T13:22:43.063Z,19.90
2019-02-06T13:23:43.029Z,21.30
2019-02-06T13:24:43.017Z,21.70
2019-02-06T13:25:43.044Z,19.10
2019-02-06T13:26:44.287Z,17.90